createdAt,value
2019-03-25T00:01:52.287Z,90.40
2019-03-25T00:06:23.482Z,90.20
2019-03-25T00:10:58.252Z,90.30
2019-03-25T00:15:33.374Z,90.20
2019-03-25T00:20:05.117Z,90.30
2019-03-25T00:24:39.254Z,90.70
2019-03-25T00:29:13.261Z,91.10
2019-03-25T00:33:45.731Z,91.10
2019-03-25T00:38:20.387Z,90.80
2019-03-25T00:42:53.539Z,90.90
2019-03-25T00:47:25.125Z,91.20
2019-03-25T00:52:01.676Z,90.80
2019-03-25T00:56:35.914Z,91.00
2019-03-25T01:01:10.103Z,91.60
2019-03-25T01:05:42.987Z,91.30
2019-03-25T01:10:36.918Z,91.50
2019-03-25T01:15:10.321Z,91.40
2019-03-25T01:19:44.840Z,91.40
2019-03-25T01:24:19.544Z,91.50
2019-03-25T01:28:51.383Z,91.60
2019-03-25T01:33:25.621Z,91.60
2019-03-25T01:38:00.930Z,91.70
2019-03-25T01:42:38.025Z,91.90
2019-03-25T01:47:10.263Z,92.20
2019-03-25T01:51:45.851Z,92.60
2019-03-25T01:56:19.178Z,92.80
2019-03-25T02:01:10.802Z,92.70
2019-03-25T02:05:44.952Z,92.80
2019-03-25T02:10:22.922Z,93.30
2019-03-25T02:15:13.361Z,94.40
2019-03-25T02:19:48.075Z,94.50
2019-03-25T02:24:24.176Z,94.90
2019-03-25T02:28:56.582Z,94.50
2019-03-25T02:33:34.361Z,94.40
2019-03-25T02:38:08.203Z,94.60
2019-03-25T02:47:14.308Z,95.30
2019-03-25T02:51:51.383Z,95.20
2019-03-25T02:56:24.700Z,95.40
2019-03-25T03:00:56.331Z,95.10
2019-03-25T03:05:30.252Z,95.40
2019-03-25T03:14:39.377Z,96.00
2019-03-25T03:19:15.729Z,95.90
2019-03-25T03:23:48.167Z,96.10
2019-03-25T03:28:21.511Z,95.90
2019-03-25T03:32:56.122Z,95.60
2019-03-25T03:37:28.817Z,95.90
2019-03-25T03:42:00.393Z,95.70
2019-03-25T03:46:35.781Z,96.10
2019-03-25T03:51:11.025Z,95.50
2019-03-25T04:00:19.096Z,95.10
2019-03-25T04:04:53.549Z,95.50
2019-03-25T04:13:58.855Z,95.60
2019-03-25T04:18:31.098Z,95.40
2019-03-25T04:23:08.881Z,95.60
2019-03-25T04:28:01.947Z,95.60
2019-03-25T04:32:35.714Z,95.90
2019-03-25T04:37:09.330Z,96.00
2019-03-25T04:41:41.932Z,96.40
2019-03-25T04:46:18.603Z,96.10
2019-03-25T04:50:51.316Z,95.90
2019-03-25T04:55:25.249Z,96.60
2019-03-25T04:59:55.947Z,96.50
2019-03-25T05:04:28.559Z,96.70
2019-03-25T05:09:03.872Z,96.10
2019-03-25T05:13:37.449Z,96.20
2019-03-25T05:18:11.177Z,96.00
2019-03-25T05:22:44.422Z,95.90
2019-03-25T05:27:15.432Z,96.20
2019-03-25T05:31:50.982Z,96.70
2019-03-25T05:36:27.253Z,96.00
2019-03-25T05:46:16.936Z,96.60
2019-03-25T05:50:52.699Z,96.40
2019-03-25T05:55:25.925Z,95.60
2019-03-25T06:00:00.373Z,94.60
2019-03-25T06:04:35.445Z,95.30
2019-03-25T06:09:15.292Z,94.40
2019-03-25T06:13:50.592Z,93.80
2019-03-25T06:18:23.817Z,93.80
2019-03-25T06:22:55.151Z,94.20
2019-03-25T06:32:15.699Z,94.70
2019-03-25T06:41:35.447Z,93.90
2019-03-25T06:46:12.115Z,92.80
2019-03-25T06:50:47.085Z,92.00
2019-03-25T06:55:25.448Z,91.30
2019-03-25T07:00:35.145Z,90.30
2019-03-25T07:05:18.059Z,86.80
2019-03-25T07:09:46.049Z,85.40
2019-03-25T07:14:20.779Z,83.10
2019-03-25T07:18:54.223Z,84.90
2019-03-25T07:23:31.000Z,83.90
2019-03-25T07:28:04.155Z,83.00
2019-03-25T07:32:36.261Z,80.90
2019-03-25T07:37:11.575Z,81.10
2019-03-25T07:41:45.042Z,78.40
2019-03-25T07:46:22.439Z,78.50
2019-03-25T07:50:53.427Z,77.50
2019-03-25T07:55:45.580Z,77.10
2019-03-25T08:00:15.713Z,78.00
2019-03-25T08:04:52.202Z,76.00
2019-03-25T08:09:28.031Z,75.70
2019-03-25T08:18:33.452Z,76.60
2019-03-25T08:23:26.097Z,76.70
2019-03-25T08:28:03.192Z,75.40
2019-03-25T08:32:35.946Z,75.70
2019-03-25T08:37:12.479Z,72.60
2019-03-25T08:41:45.084Z,73.70
2019-03-25T08:46:15.660Z,72.80
2019-03-25T08:50:52.372Z,73.00
2019-03-25T08:55:33.299Z,73.20
2019-03-25T09:00:07.071Z,72.10
2019-03-25T09:04:45.501Z,70.30
2019-03-25T09:09:20.844Z,68.30
2019-03-25T09:13:53.481Z,67.80
2019-03-25T09:18:46.356Z,67.60
2019-03-25T09:23:20.782Z,67.90
2019-03-25T09:27:53.917Z,67.30
2019-03-25T09:32:28.011Z,68.90
2019-03-25T09:37:04.198Z,69.00
2019-03-25T09:41:36.274Z,72.20
2019-03-25T09:46:10.961Z,70.90
2019-03-25T09:50:43.801Z,69.10
2019-03-25T09:55:17.496Z,70.20
2019-03-25T09:59:50.923Z,66.30
2019-03-25T10:04:24.440Z,65.00
2019-03-25T10:08:55.467Z,64.20
2019-03-25T10:13:35.684Z,64.80
2019-03-25T10:18:10.813Z,61.30
2019-03-25T10:22:44.179Z,59.40
2019-03-25T10:27:15.518Z,59.60
2019-03-25T10:31:51.399Z,59.40
2019-03-25T10:36:24.021Z,60.20
2019-03-25T10:40:56.624Z,62.50
2019-03-25T10:45:31.277Z,64.20
2019-03-25T10:50:06.381Z,63.20
2019-03-25T10:54:40.129Z,62.60
2019-03-25T10:59:13.978Z,62.00
2019-03-25T11:03:45.832Z,63.70
2019-03-25T11:08:22.865Z,63.20
2019-03-25T11:12:53.017Z,61.50
2019-03-25T11:17:25.643Z,64.00
2019-03-25T11:22:00.549Z,65.20
2019-03-25T11:26:34.544Z,67.40
2019-03-25T11:31:13.811Z,64.50
2019-03-25T11:35:48.577Z,63.20
2019-03-25T11:40:23.789Z,64.70
2019-03-25T11:44:56.608Z,64.80
2019-03-25T11:49:32.184Z,63.70
2019-03-25T11:54:24.853Z,59.70
2019-03-25T11:58:56.011Z,62.00
2019-03-25T12:08:07.994Z,65.50
2019-03-25T12:12:40.931Z,62.10
2019-03-25T12:17:15.428Z,59.30
2019-03-25T12:21:57.479Z,61.70
2019-03-25T12:26:31.386Z,64.90
2019-03-25T12:31:04.837Z,66.40
2019-03-25T12:35:35.562Z,66.70
2019-03-25T12:40:11.558Z,68.00
2019-03-25T12:44:47.257Z,70.20
2019-03-25T12:49:23.784Z,76.60
2019-03-25T12:53:56.632Z,76.00
2019-03-25T12:58:29.611Z,76.20
2019-03-25T13:03:01.915Z,76.70
2019-03-25T13:07:38.690Z,75.40
2019-03-25T13:12:14.327Z,74.90
2019-03-25T13:16:47.705Z,71.10
2019-03-25T13:21:20.597Z,72.90
2019-03-25T13:25:55.622Z,74.50
2019-03-25T13:30:29.179Z,73.80
2019-03-25T13:35:00.854Z,71.10
2019-03-25T13:39:31.656Z,70.60
2019-03-25T13:44:03.821Z,70.10
2019-03-25T13:48:39.085Z,69.50
2019-03-25T13:53:10.652Z,68.70
2019-03-25T13:57:46.554Z,68.00
2019-03-25T14:02:19.157Z,67.80
2019-03-25T14:07:10.748Z,69.60
2019-03-25T14:12:04.154Z,70.60
2019-03-25T14:16:38.318Z,68.10
2019-03-25T14:21:11.957Z,72.60
2019-03-25T14:25:45.851Z,69.60
2019-03-25T14:30:21.268Z,77.20
2019-03-25T14:34:57.989Z,85.40
2019-03-25T14:39:29.095Z,89.30
2019-03-25T14:44:02.933Z,92.20
2019-03-25T14:48:37.924Z,94.70
2019-03-25T14:53:10.524Z,96.30
2019-03-25T14:57:43.709Z,98.40
2019-03-25T15:02:19.817Z,99.90
2019-03-25T15:06:59.618Z,99.90
2019-03-25T15:11:31.572Z,99.90
2019-03-25T15:16:08.360Z,99.90
2019-03-25T15:21:03.194Z,99.90
2019-03-25T15:25:35.499Z,99.90
2019-03-25T15:30:10.767Z,99.90
2019-03-25T15:34:43.772Z,99.90
2019-03-25T15:39:19.222Z,99.90
2019-03-25T15:44:23.104Z,99.90
2019-03-25T15:48:55.829Z,99.90
2019-03-25T16:02:56.434Z,99.90
2019-03-25T16:07:34.558Z,99.90
2019-03-25T16:12:06.771Z,99.90
2019-03-25T16:16:39.834Z,99.90
2019-03-25T16:21:12.206Z,99.90
2019-03-25T16:25:46.803Z,99.20
2019-03-25T16:34:55.102Z,99.40
2019-03-25T16:44:04.330Z,98.70
2019-03-25T16:48:36.903Z,99.10
2019-03-25T16:53:13.901Z,98.70
2019-03-25T16:57:46.703Z,99.00
2019-03-25T17:02:31.250Z,98.80
2019-03-25T17:07:08.152Z,99.00
2019-03-25T17:12:02.079Z,99.90
2019-03-25T17:16:35.871Z,99.70
2019-03-25T17:21:09.293Z,99.70
2019-03-25T17:26:04.494Z,99.90
2019-03-25T17:30:38.925Z,99.90
2019-03-25T17:35:13.423Z,99.90
2019-03-25T17:39:46.769Z,99.90
2019-03-25T17:44:19.588Z,99.90
2019-03-25T17:48:52.518Z,99.90
2019-03-25T17:53:28.119Z,99.90
2019-03-25T17:58:02.235Z,99.90
2019-03-25T18:02:36.281Z,99.90
2019-03-25T18:07:10.279Z,99.90
2019-03-25T18:11:47.944Z,99.90
2019-03-25T18:16:22.623Z,99.90
2019-03-25T18:25:30.356Z,99.90
2019-03-25T18:30:07.267Z,99.90
2019-03-25T18:34:41.704Z,99.90
2019-03-25T18:39:20.071Z,99.90
2019-03-25T18:43:51.749Z,99.90
2019-03-25T18:48:27.209Z,99.70
2019-03-25T18:53:02.252Z,99.90
2019-03-25T18:57:36.411Z,99.90
2019-03-25T19:02:09.324Z,99.90
2019-03-25T19:06:58.982Z,99.90
2019-03-25T19:11:31.666Z,99.90
2019-03-25T19:16:09.097Z,99.90
2019-03-25T19:21:04.464Z,99.90
2019-03-25T19:30:10.357Z,99.90
2019-03-25T19:34:44.566Z,99.90
2019-03-25T19:39:18.781Z,99.90
2019-03-25T19:43:53.327Z,99.90
2019-03-25T19:48:29.503Z,99.90
2019-03-25T19:57:31.335Z,99.90
2019-03-25T20:02:18.148Z,99.90
2019-03-25T20:06:40.144Z,99.90
2019-03-25T20:11:11.862Z,99.90
2019-03-25T20:15:48.323Z,99.90
2019-03-25T20:20:20.998Z,99.90
2019-03-25T20:34:11.343Z,99.90
2019-03-25T20:38:41.353Z,99.90
2019-03-25T20:43:14.897Z,99.90
2019-03-25T20:47:46.648Z,99.90
2019-03-25T20:52:20.696Z,99.90
2019-03-25T20:56:54.692Z,99.90
2019-03-25T21:01:34.190Z,99.90
2019-03-25T21:06:10.500Z,99.90
2019-03-25T21:10:47.152Z,99.90
2019-03-25T21:15:24.416Z,99.90
2019-03-25T21:20:00.364Z,99.90
2019-03-25T21:24:31.739Z,99.90
2019-03-25T21:29:09.112Z,99.90
2019-03-25T21:38:13.621Z,99.90
2019-03-25T21:42:47.003Z,99.90
2019-03-25T21:47:23.270Z,99.90
2019-03-25T22:11:14.289Z,99.90
2019-03-25T22:15:49.374Z,99.90
2019-03-25T22:20:27.248Z,99.90
2019-03-25T22:25:02.099Z,99.90
2019-03-25T22:29:35.944Z,99.90
2019-03-25T22:34:06.999Z,99.90
2019-03-25T22:38:45.045Z,99.90
2019-03-25T22:43:17.200Z,99.90
2019-03-25T22:47:49.726Z,99.90
2019-03-25T22:52:23.464Z,99.90
2019-03-25T22:56:56.992Z,99.90
2019-03-25T23:01:31.243Z,99.90
2019-03-25T23:06:04.246Z,99.90
2019-03-25T23:10:56.564Z,99.90
2019-03-25T23:15:27.890Z,99.90
2019-03-25T23:20:02.279Z,99.90
2019-03-25T23:24:37.580Z,99.90
2019-03-25T23:29:11.280Z,99.90
2019-03-25T23:33:52.184Z,99.90
2019-03-25T23:38:21.684Z,99.90
2019-03-25T23:42:55.442Z,99.90
2019-03-25T23:47:27.132Z,99.90
2019-03-25T23:56:27.327Z,99.90
